Time;durP1;ratioP1;P1;durP2;ratioP2;P2;SDS_P1;SDS_P2;PMS_P1;PMS_P2;Temp;Humidity;BMP_temperature;BMP_pressure;BME280_temperature;BME280_humidity;BME280_pressure;Samples;Min_cycle;Max_cycle;Signal;HPM_P1;HPM_P2
2023/04/18 00:01:23;;;;;;;8.00;6.22;;;;;;;;;;5054442;28;20025;-67
2023/04/18 00:03:50;;;;;;;9.02;6.93;;;;;;;;;;5054210;28;20389;-67
2023/04/18 00:06:16;;;;;;;9.65;6.82;;;;;;;;;;5054357;28;20028;-66
2023/04/18 00:08:43;;;;;;;8.82;6.15;;;;;;;;;;5054371;28;20040;-67
2023/04/18 00:11:09;;;;;;;10.02;6.45;;;;;;;;;;5053982;28;20036;-67
2023/04/18 00:13:37;;;;;;;9.73;6.35;;;;;;;;;;5054413;28;20016;-67
2023/04/18 00:16:03;;;;;;;9.88;6.80;;;;;;;;;;5054111;28;20465;-67
2023/04/18 00:18:30;;;;;;;10.13;7.03;;;;;;;;;;5053906;28;20048;-67
2023/04/18 00:20:56;;;;;;;9.80;6.47;;;;;;;;;;5052822;28;20033;-67
2023/04/18 00:23:23;;;;;;;8.38;6.40;;;;;;;;;;5053897;28;20044;-67
2023/04/18 00:25:49;;;;;;;9.15;6.35;;;;;;;;;;5053854;28;20031;-67
2023/04/18 00:28:15;;;;;;;8.38;6.90;;;;;;;;;;5053749;28;20440;-67
2023/04/18 00:30:42;;;;;;;11.63;6.88;;;;;;;;;;5053692;28;20497;-67
2023/04/18 00:33:08;;;;;;;9.55;6.43;;;;;;;;;;5053770;28;20029;-67
2023/04/18 00:35:36;;;;;;;9.07;6.70;;;;;;;;;;5053840;28;20017;-67
2023/04/18 00:38:03;;;;;;;8.50;6.40;;;;;;;;;;5053939;28;20037;-67
2023/04/18 00:40:29;;;;;;;7.68;6.32;;;;;;;;;;5053392;28;20523;-66
2023/04/18 00:42:55;;;;;;;11.75;6.70;;;;;;;;;;5053648;28;20036;-66
2023/04/18 00:45:22;;;;;;;8.85;6.30;;;;;;;;;;5053551;28;20426;-67
2023/04/18 00:47:48;;;;;;;8.45;6.25;;;;;;;;;;5052313;28;20031;-67
2023/04/18 00:50:15;;;;;;;8.27;6.32;;;;;;;;;;5053656;28;20033;-67
2023/04/18 00:52:41;;;;;;;9.73;6.25;;;;;;;;;;5053474;28;20047;-67
2023/04/18 00:55:08;;;;;;;7.85;5.82;;;;;;;;;;5053484;28;20102;-67
2023/04/18 00:57:34;;;;;;;8.07;6.68;;;;;;;;;;5053622;28;20028;-67
2023/04/18 01:00:01;;;;;;;7.68;5.80;;;;;;;;;;5053332;28;20025;-67
2023/04/18 01:02:29;;;;;;;7.80;6.07;;;;;;;;;;5052077;28;20435;-67
2023/04/18 01:04:57;;;;;;;8.23;5.97;;;;;;;;;;5053961;28;20078;-67
2023/04/18 01:07:24;;;;;;;9.63;6.68;;;;;;;;;;5053405;28;20059;-68
2023/04/18 01:09:50;;;;;;;9.52;6.25;;;;;;;;;;5053606;28;20024;-67
2023/04/18 01:12:17;;;;;;;10.02;6.75;;;;;;;;;;5053627;28;20017;-67
2023/04/18 01:14:43;;;;;;;9.25;6.25;;;;;;;;;;5053234;28;20025;-67
2023/04/18 01:17:09;;;;;;;9.50;6.18;;;;;;;;;;5053636;28;20039;-67
2023/04/18 01:19:36;;;;;;;8.90;6.93;;;;;;;;;;5053445;28;20428;-67
2023/04/18 01:22:03;;;;;;;7.20;5.68;;;;;;;;;;5053384;28;20025;-66
2023/04/18 01:24:30;;;;;;;9.93;6.82;;;;;;;;;;5052864;28;20405;-66
2023/04/18 01:26:57;;;;;;;9.75;6.45;;;;;;;;;;5053116;28;20023;-68
2023/04/18 01:29:26;;;;;;;8.70;5.65;;;;;;;;;;5052086;28;20035;-67
2023/04/18 01:31:53;;;;;;;8.57;5.90;;;;;;;;;;5052793;28;20049;-67
2023/04/18 01:34:19;;;;;;;9.25;6.47;;;;;;;;;;5053188;28;20037;-67
2023/04/18 01:36:46;;;;;;;7.97;5.95;;;;;;;;;;5052588;28;20469;-67
2023/04/18 01:39:13;;;;;;;7.75;5.93;;;;;;;;;;5052353;28;20060;-68
2023/04/18 01:41:41;;;;;;;8.48;6.18;;;;;;;;;;5052872;28;20035;-67
2023/04/18 01:44:07;;;;;;;10.10;6.63;;;;;;;;;;5052984;28;20033;-68
2023/04/18 01:46:34;;;;;;;10.27;6.82;;;;;;;;;;5052766;28;20021;-66
2023/04/18 01:49:01;;;;;;;9.27;6.47;;;;;;;;;;5052387;28;20078;-67
2023/04/18 01:51:27;;;;;;;8.13;5.88;;;;;;;;;;5052538;28;20028;-67
2023/04/18 01:53:53;;;;;;;8.85;6.20;;;;;;;;;;5052666;28;20393;-67
2023/04/18 01:56:20;;;;;;;8.68;6.47;;;;;;;;;;5052706;28;20028;-67
2023/04/18 01:58:46;;;;;;;9.00;6.78;;;;;;;;;;5052858;28;20017;-67
2023/04/18 02:01:12;;;;;;;8.90;6.57;;;;;;;;;;5052552;28;20025;-67
2023/04/18 02:03:39;;;;;;;8.80;6.80;;;;;;;;;;5052781;28;20043;-67
2023/04/18 02:06:05;;;;;;;9.88;6.32;;;;;;;;;;5052358;28;20027;-67
2023/04/18 02:08:34;;;;;;;10.00;6.70;;;;;;;;;;5051982;28;20078;-67
2023/04/18 02:11:01;;;;;;;10.20;7.18;;;;;;;;;;5052342;28;20031;-67
2023/04/18 02:13:28;;;;;;;9.60;6.80;;;;;;;;;;5052708;28;20017;-67
2023/04/18 02:15:54;;;;;;;11.15;7.03;;;;;;;;;;5052985;28;20371;-67
2023/04/18 02:18:23;;;;;;;10.25;6.85;;;;;;;;;;5052616;28;20397;-67
2023/04/18 02:20:50;;;;;;;9.05;7.00;;;;;;;;;;5052422;28;20025;-67
2023/04/18 02:23:17;;;;;;;11.20;7.13;;;;;;;;;;5051907;28;20051;-67
2023/04/18 02:25:44;;;;;;;9.98;7.15;;;;;;;;;;5052290;28;20025;-67
2023/04/18 02:28:10;;;;;;;10.60;6.65;;;;;;;;;;5052507;28;20193;-67
2023/04/18 02:30:36;;;;;;;8.23;6.50;;;;;;;;;;5051756;28;20444;-67
2023/04/18 02:33:03;;;;;;;11.20;7.03;;;;;;;;;;5052442;28;20021;-67
2023/04/18 02:35:29;;;;;;;9.18;6.55;;;;;;;;;;5052236;28;20379;-66
2023/04/18 02:37:56;;;;;;;8.13;5.97;;;;;;;;;;5051901;28;20025;-67
2023/04/18 02:40:22;;;;;;;9.35;7.30;;;;;;;;;;5051520;28;20021;-65
2023/04/18 02:42:48;;;;;;;8.50;6.72;;;;;;;;;;5052043;28;20031;-67
2023/04/18 02:45:14;;;;;;;9.27;6.68;;;;;;;;;;5052527;28;20013;-66
2023/04/18 02:47:41;;;;;;;9.98;6.97;;;;;;;;;;5052320;28;20035;-67
2023/04/18 02:50:08;;;;;;;10.07;6.63;;;;;;;;;;5051967;28;20474;-67
2023/04/18 02:52:34;;;;;;;8.63;6.43;;;;;;;;;;5056568;28;20027;-67
2023/04/18 02:55:00;;;;;;;8.40;6.18;;;;;;;;;;5056337;28;20025;-67
2023/04/18 02:57:27;;;;;;;10.98;6.80;;;;;;;;;;5056090;28;20025;-67
2023/04/18 02:59:53;;;;;;;9.32;6.43;;;;;;;;;;5056261;28;20497;-67
2023/04/18 03:02:20;;;;;;;9.82;6.38;;;;;;;;;;5056073;28;20033;-67
2023/04/18 03:04:46;;;;;;;8.55;6.55;;;;;;;;;;5055944;28;20036;-67
2023/04/18 03:07:12;;;;;;;8.88;6.55;;;;;;;;;;5055973;28;20374;-67
2023/04/18 03:09:39;;;;;;;9.55;7.13;;;;;;;;;;5055566;28;20029;-67
2023/04/18 03:12:05;;;;;;;9.73;6.80;;;;;;;;;;5055349;28;20031;-67
2023/04/18 03:14:32;;;;;;;9.60;6.75;;;;;;;;;;5055399;28;20025;-65
2023/04/18 03:16:58;;;;;;;8.48;6.57;;;;;;;;;;5055632;28;20029;-67
2023/04/18 03:19:24;;;;;;;9.93;7.15;;;;;;;;;;5055322;28;20020;-66
2023/04/18 03:21:51;;;;;;;9.60;7.20;;;;;;;;;;5055255;28;20486;-66
2023/04/18 03:24:17;;;;;;;11.48;7.15;;;;;;;;;;5055109;28;20036;-66
2023/04/18 03:26:44;;;;;;;8.27;6.25;;;;;;;;;;5055122;28;20264;-66
2023/04/18 03:29:11;;;;;;;11.85;6.80;;;;;;;;;;5055282;28;20025;-67
2023/04/18 03:31:37;;;;;;;9.35;6.63;;;;;;;;;;5055225;28;20041;-67
2023/04/18 03:34:04;;;;;;;10.07;7.13;;;;;;;;;;5055086;28;20017;-67
2023/04/18 03:36:30;;;;;;;9.25;7.03;;;;;;;;;;5054919;28;20477;-67
2023/04/18 03:38:56;;;;;;;10.70;7.20;;;;;;;;;;5054894;28;20393;-67
2023/04/18 03:41:23;;;;;;;10.35;7.28;;;;;;;;;;5054778;28;20029;-67
2023/04/18 03:43:49;;;;;;;8.90;7.10;;;;;;;;;;5054629;28;20394;-67
2023/04/18 03:46:15;;;;;;;10.13;7.35;;;;;;;;;;5055016;28;20377;-67
2023/04/18 03:48:42;;;;;;;8.27;6.63;;;;;;;;;;5054306;28;20028;-67
2023/04/18 03:51:08;;;;;;;9.05;6.70;;;;;;;;;;5054709;28;20486;-67
2023/04/18 03:53:35;;;;;;;10.30;7.93;;;;;;;;;;5054736;28;20017;-67
2023/04/18 03:56:01;;;;;;;9.43;7.45;;;;;;;;;;5055036;28;20029;-67
2023/04/18 03:58:27;;;;;;;10.27;7.65;;;;;;;;;;5055286;28;20035;-67
2023/04/18 04:00:54;;;;;;;10.70;7.47;;;;;;;;;;5054438;28;20478;-67
2023/04/18 04:03:20;;;;;;;11.73;6.93;;;;;;;;;;5053992;28;20032;-67
2023/04/18 04:05:47;;;;;;;10.57;6.97;;;;;;;;;;5054407;28;20028;-67
2023/04/18 04:08:15;;;;;;;8.60;6.53;;;;;;;;;;5054067;28;20033;-67
2023/04/18 04:10:41;;;;;;;11.90;6.97;;;;;;;;;;5054187;28;20025;-67
2023/04/18 04:13:07;;;;;;;9.95;7.40;;;;;;;;;;5054349;28;20023;-67
2023/04/18 04:15:35;;;;;;;10.35;6.78;;;;;;;;;;5054201;28;20035;-67
2023/04/18 04:18:02;;;;;;;9.95;7.38;;;;;;;;;;5054714;28;20024;-67
2023/04/18 04:20:28;;;;;;;9.02;7.07;;;;;;;;;;5054371;28;20493;-67
2023/04/18 04:22:55;;;;;;;10.02;6.82;;;;;;;;;;5054311;28;20044;-67
2023/04/18 04:25:23;;;;;;;11.48;6.93;;;;;;;;;;5054318;28;20022;-67
2023/04/18 04:27:52;;;;;;;9.13;6.57;;;;;;;;;;5054121;28;20298;-67
2023/04/18 04:30:19;;;;;;;10.77;7.78;;;;;;;;;;5054217;28;20041;-67
2023/04/18 04:32:49;;;;;;;10.30;7.22;;;;;;;;;;5053791;28;20039;-67
2023/04/18 04:35:15;;;;;;;8.93;7.28;;;;;;;;;;5053783;28;20025;-67
2023/04/18 04:37:42;;;;;;;9.65;7.30;;;;;;;;;;5054104;28;20040;-67
2023/04/18 04:40:09;;;;;;;12.05;7.75;;;;;;;;;;5054149;28;20021;-67
2023/04/18 04:42:36;;;;;;;10.30;7.53;;;;;;;;;;5053782;28;20451;-67
2023/04/18 04:45:02;;;;;;;12.25;7.00;;;;;;;;;;5053857;28;20025;-67
2023/04/18 04:47:29;;;;;;;13.32;7.78;;;;;;;;;;5052169;28;20035;-67
2023/04/18 04:49:55;;;;;;;15.07;8.50;;;;;;;;;;5053943;28;20021;-67
2023/04/18 04:52:21;;;;;;;14.30;9.40;;;;;;;;;;5052150;28;20049;-67
2023/04/18 04:54:48;;;;;;;12.68;8.73;;;;;;;;;;5053700;28;20025;-67
2023/04/18 04:57:14;;;;;;;16.77;9.90;;;;;;;;;;5053514;28;20055;-67
2023/04/18 04:59:40;;;;;;;14.65;9.93;;;;;;;;;;5053761;28;20035;-67
2023/04/18 05:02:07;;;;;;;13.93;10.32;;;;;;;;;;5052966;28;20039;-67
2023/04/18 05:04:33;;;;;;;16.98;11.38;;;;;;;;;;5053405;28;20044;-67
2023/04/18 05:07:00;;;;;;;18.52;11.40;;;;;;;;;;5053531;28;20024;-67
2023/04/18 05:09:26;;;;;;;18.95;11.30;;;;;;;;;;5053164;28;20381;-67
2023/04/18 05:11:52;;;;;;;18.02;10.93;;;;;;;;;;5053176;28;20012;-67
2023/04/18 05:14:19;;;;;;;17.58;11.35;;;;;;;;;;5052148;28;20029;-67
2023/04/18 05:16:46;;;;;;;21.45;12.10;;;;;;;;;;5052931;28;20037;-67
2023/04/18 05:19:12;;;;;;;25.50;12.23;;;;;;;;;;5053171;28;20032;-67
2023/04/18 05:21:39;;;;;;;21.15;11.75;;;;;;;;;;5053121;28;20077;-67
2023/04/18 05:24:05;;;;;;;20.27;11.45;;;;;;;;;;5053198;28;20033;-66
2023/04/18 05:26:32;;;;;;;15.85;10.05;;;;;;;;;;5052015;28;20389;-67
2023/04/18 05:28:58;;;;;;;13.68;8.27;;;;;;;;;;5053341;28;20025;-67
2023/04/18 05:31:25;;;;;;;11.55;8.15;;;;;;;;;;5053077;28;20049;-66
2023/04/18 05:33:51;;;;;;;10.85;7.78;;;;;;;;;;5053327;28;20037;-67
2023/04/18 05:36:18;;;;;;;14.02;9.27;;;;;;;;;;5053042;28;20020;-67
2023/04/18 05:38:44;;;;;;;17.50;11.07;;;;;;;;;;5052519;28;20565;-67
2023/04/18 05:41:10;;;;;;;19.00;12.82;;;;;;;;;;5052133;28;20029;-67
2023/04/18 05:43:37;;;;;;;23.85;13.50;;;;;;;;;;5053037;28;20041;-67
2023/04/18 05:46:03;;;;;;;26.27;15.32;;;;;;;;;;5052815;28;20029;-67
2023/04/18 05:48:29;;;;;;;24.27;14.55;;;;;;;;;;5052698;28;20032;-67
2023/04/18 05:50:56;;;;;;;23.38;13.98;;;;;;;;;;5053011;28;20031;-67
2023/04/18 05:53:23;;;;;;;25.30;14.05;;;;;;;;;;5052320;28;20553;-67
2023/04/18 05:55:49;;;;;;;16.02;10.65;;;;;;;;;;5052842;28;20122;-67
2023/04/18 05:58:15;;;;;;;12.30;8.77;;;;;;;;;;5052487;28;20436;-67
2023/04/18 06:00:42;;;;;;;12.02;8.52;;;;;;;;;;5052491;28;20032;-67
2023/04/18 06:03:08;;;;;;;13.73;7.93;;;;;;;;;;5052312;28;20035;-67
2023/04/18 06:05:35;;;;;;;10.40;6.97;;;;;;;;;;5052086;28;20389;-67
2023/04/18 06:08:02;;;;;;;9.05;7.03;;;;;;;;;;5052390;28;20070;-67
2023/04/18 06:10:28;;;;;;;10.90;7.32;;;;;;;;;;5052569;28;20017;-67
2023/04/18 06:12:55;;;;;;;10.73;7.47;;;;;;;;;;5052417;28;20036;-67
2023/04/18 06:15:21;;;;;;;10.95;7.05;;;;;;;;;;5052512;28;20024;-67
2023/04/18 06:17:47;;;;;;;9.98;6.20;;;;;;;;;;5052091;28;20416;-67
2023/04/18 06:20:14;;;;;;;9.80;6.53;;;;;;;;;;5048418;28;20017;-67
2023/04/18 06:22:40;;;;;;;12.55;6.88;;;;;;;;;;5051294;28;20029;-67
2023/04/18 06:25:08;;;;;;;9.85;6.95;;;;;;;;;;5052315;28;20039;-67
2023/04/18 06:27:35;;;;;;;8.57;6.85;;;;;;;;;;5050666;28;20028;-67
2023/04/18 06:30:02;;;;;;;8.57;6.68;;;;;;;;;;5049352;28;20044;-67
2023/04/18 06:32:28;;;;;;;9.52;7.30;;;;;;;;;;5048177;28;20028;-67
2023/04/18 06:34:55;;;;;;;9.25;7.22;;;;;;;;;;5051515;28;20051;-67
2023/04/18 06:37:21;;;;;;;9.55;7.30;;;;;;;;;;5050648;28;20033;-67
2023/04/18 06:39:47;;;;;;;9.23;7.32;;;;;;;;;;5050925;28;20035;-67
2023/04/18 06:42:13;;;;;;;8.65;6.90;;;;;;;;;;5051347;28;20385;-67
2023/04/18 06:44:41;;;;;;;8.57;7.28;;;;;;;;;;5057534;28;20033;-68
2023/04/18 06:47:08;;;;;;;12.10;7.95;;;;;;;;;;5050125;28;20397;-67
2023/04/18 06:49:34;;;;;;;9.98;7.75;;;;;;;;;;5049073;28;20035;-68
2023/04/18 06:52:01;;;;;;;9.23;7.45;;;;;;;;;;5050541;28;20025;-67
2023/04/18 06:54:27;;;;;;;12.43;7.93;;;;;;;;;;5050535;28;20104;-68
2023/04/18 06:56:53;;;;;;;12.65;6.95;;;;;;;;;;5050728;28;20031;-67
2023/04/18 06:59:20;;;;;;;10.98;7.40;;;;;;;;;;5050621;28;20127;-67
2023/04/18 07:01:47;;;;;;;8.38;6.90;;;;;;;;;;5054030;28;20025;-67
2023/04/18 07:04:14;;;;;;;9.73;7.68;;;;;;;;;;5049561;28;20085;-67
2023/04/18 07:06:41;;;;;;;9.93;6.50;;;;;;;;;;5050000;28;20021;-67
2023/04/18 07:09:08;;;;;;;10.52;6.75;;;;;;;;;;5050517;28;20102;-67
2023/04/18 07:11:34;;;;;;;14.50;6.60;;;;;;;;;;5050781;28;20435;-67
2023/04/18 07:14:01;;;;;;;12.18;6.70;;;;;;;;;;5050732;28;20025;-68
2023/04/18 07:16:27;;;;;;;12.93;6.00;;;;;;;;;;5048377;28;20021;-68
2023/04/18 07:18:54;;;;;;;12.98;6.35;;;;;;;;;;5048030;28;20043;-68
2023/04/18 07:21:20;;;;;;;10.77;6.55;;;;;;;;;;5050041;28;20027;-68
2023/04/18 07:23:46;;;;;;;13.50;5.85;;;;;;;;;;5048907;28;20102;-68
2023/04/18 07:26:13;;;;;;;8.23;5.97;;;;;;;;;;5048036;28;20047;-68
2023/04/18 07:28:39;;;;;;;10.70;6.72;;;;;;;;;;5049622;28;20035;-68
2023/04/18 07:31:09;;;;;;;9.75;7.00;;;;;;;;;;5049502;28;20053;-65
2023/04/18 07:33:36;;;;;;;14.07;6.55;;;;;;;;;;5050262;28;20033;-67
2023/04/18 07:36:03;;;;;;;10.32;6.25;;;;;;;;;;5049996;28;20033;-68
2023/04/18 07:38:29;;;;;;;7.43;5.63;;;;;;;;;;5053364;28;20025;-66
2023/04/18 07:40:59;;;;;;;8.45;5.70;;;;;;;;;;5053124;28;20401;-65
2023/04/18 07:43:26;;;;;;;8.18;5.50;;;;;;;;;;5053200;28;20044;-65
2023/04/18 07:45:52;;;;;;;7.63;5.18;;;;;;;;;;5051730;28;20037;-66
2023/04/18 07:48:21;;;;;;;8.00;5.05;;;;;;;;;;5053397;28;20027;-65
2023/04/18 07:50:48;;;;;;;10.85;5.18;;;;;;;;;;5053218;28;20379;-66
2023/04/18 07:53:14;;;;;;;6.18;4.25;;;;;;;;;;5052899;28;20054;-66
2023/04/18 07:55:42;;;;;;;3.70;2.75;;;;;;;;;;5053073;28;20020;-66
2023/04/18 07:58:09;;;;;;;4.53;3.92;;;;;;;;;;5052544;28;20062;-66
2023/04/18 08:00:36;;;;;;;8.82;3.60;;;;;;;;;;5052468;28;20025;-66
2023/04/18 08:03:02;;;;;;;4.78;3.40;;;;;;;;;;5053129;28;20040;-66
2023/04/18 08:05:28;;;;;;;3.55;3.03;;;;;;;;;;5053177;28;20024;-66
2023/04/18 08:07:55;;;;;;;5.63;2.80;;;;;;;;;;5052761;28;20025;-65
2023/04/18 08:10:21;;;;;;;4.47;3.20;;;;;;;;;;5051241;28;20044;-66
2023/04/18 08:12:47;;;;;;;3.75;2.72;;;;;;;;;;5053022;28;20025;-66
2023/04/18 08:15:14;;;;;;;3.88;2.60;;;;;;;;;;5052358;28;20029;-66
2023/04/18 08:17:42;;;;;;;3.15;2.85;;;;;;;;;;5052519;28;20048;-67
2023/04/18 08:20:09;;;;;;;3.30;2.85;;;;;;;;;;5052840;28;20021;-67
2023/04/18 08:22:35;;;;;;;4.70;3.50;;;;;;;;;;5052572;28;20051;-68
2023/04/18 08:25:01;;;;;;;3.83;3.05;;;;;;;;;;5052131;28;20035;-67
2023/04/18 08:27:28;;;;;;;2.58;2.38;;;;;;;;;;5051998;28;20636;-67
2023/04/18 08:29:54;;;;;;;3.72;2.75;;;;;;;;;;5052832;28;20041;-67
2023/04/18 08:32:21;;;;;;;4.32;2.70;;;;;;;;;;5052009;28;20033;-67
2023/04/18 08:34:47;;;;;;;4.78;3.20;;;;;;;;;;5052233;28;20025;-68
2023/04/18 08:37:14;;;;;;;2.88;2.60;;;;;;;;;;5052167;28;20817;-66
2023/04/18 08:39:40;;;;;;;3.38;3.08;;;;;;;;;;5053145;28;20033;-67
2023/04/18 08:42:09;;;;;;;3.50;2.97;;;;;;;;;;5052446;28;20054;-67
2023/04/18 08:44:36;;;;;;;3.65;3.10;;;;;;;;;;5051455;28;20521;-67
2023/04/18 08:47:03;;;;;;;3.08;2.78;;;;;;;;;;5051946;28;20051;-67
2023/04/18 08:49:30;;;;;;;3.17;2.75;;;;;;;;;;5050952;28;20029;-68
2023/04/18 08:51:57;;;;;;;6.22;2.95;;;;;;;;;;5051720;28;20074;-68
2023/04/18 08:54:24;;;;;;;3.70;3.10;;;;;;;;;;5052220;28;20482;-65
2023/04/18 08:57:11;;;;;;;3.72;2.85;;;;;;;;;;5051867;28;20017;-66
2023/04/18 08:59:38;;;;;;;2.97;2.30;;;;;;;;;;5050927;28;20023;-66
2023/04/18 09:02:07;;;;;;;5.20;2.35;;;;;;;;;;5051403;28;20033;-66
2023/04/18 09:04:37;;;;;;;2.00;1.90;;;;;;;;;;5057978;28;20029;-66
2023/04/18 09:07:07;;;;;;;3.13;2.05;;;;;;;;;;5051121;28;20019;-66
2023/04/18 09:09:33;;;;;;;;;;;;;;;;;;5051856;28;20031;-66
2023/04/18 09:12:06;;;;;;;2.20;1.80;;;;;;;;;;5051409;28;20676;-66
2023/04/18 09:14:35;;;;;;;1.67;1.58;;;;;;;;;;5051386;28;20033;-66
2023/04/18 09:17:01;;;;;;;2.22;2.03;;;;;;;;;;5051560;28;20047;-67
2023/04/18 09:19:29;;;;;;;2.50;2.30;;;;;;;;;;5051388;28;20021;-66
2023/04/18 09:21:57;;;;;;;2.05;1.85;;;;;;;;;;5051005;28;20035;-66
2023/04/18 09:24:25;;;;;;;3.17;2.22;;;;;;;;;;5051580;28;20032;-66
2023/04/18 09:26:52;;;;;;;2.17;2.00;;;;;;;;;;5051706;28;20020;-66
2023/04/18 09:29:22;;;;;;;2.33;2.00;;;;;;;;;;5050577;28;20039;-66
2023/04/18 09:31:59;;;;;;;3.08;2.15;;;;;;;;;;5050082;28;20041;-67
2023/04/18 09:34:26;;;;;;;2.30;2.10;;;;;;;;;;5050651;28;20039;-66
2023/04/18 09:37:19;;;;;;;2.92;1.73;;;;;;;;;;5050446;28;20029;-67
2023/04/18 09:39:45;;;;;;;4.60;2.40;;;;;;;;;;5047558;28;20045;-66
2023/04/18 09:42:12;;;;;;;2.50;2.03;;;;;;;;;;5050694;28;20025;-66
2023/04/18 09:44:57;;;;;;;2.53;2.05;;;;;;;;;;5049059;28;20037;-65
2023/04/18 09:47:23;;;;;;;2.95;2.03;;;;;;;;;;5030497;28;20025;-66
2023/04/18 09:49:50;;;;;;;3.25;2.25;;;;;;;;;;5030621;28;20022;-66
2023/04/18 09:52:17;;;;;;;2.40;1.80;;;;;;;;;;5049427;28;20017;-66
2023/04/18 09:54:44;;;;;;;3.22;1.92;;;;;;;;;;5049218;28;20033;-68
2023/04/18 09:57:12;;;;;;;4.15;2.15;;;;;;;;;;5050397;28;20484;-66
2023/04/18 09:59:49;;;;;;;4.03;1.67;;;;;;;;;;5050858;28;20021;-66
2023/04/18 10:02:20;;;;;;;2.25;1.75;;;;;;;;;;5050408;28;20043;-66
2023/04/18 10:04:46;;;;;;;2.92;1.80;;;;;;;;;;5049158;28;20036;-66
2023/04/18 10:07:14;;;;;;;2.03;1.92;;;;;;;;;;5049322;28;20027;-66
2023/04/18 10:09:43;;;;;;;1.83;1.63;;;;;;;;;;5050112;28;20515;-66
2023/04/18 10:12:11;;;;;;;2.28;1.65;;;;;;;;;;5050410;28;20031;-66
2023/04/18 10:14:38;;;;;;;5.55;1.73;;;;;;;;;;5050569;28;20035;-66
2023/04/18 10:17:05;;;;;;;2.20;1.90;;;;;;;;;;5049876;28;20470;-66
2023/04/18 10:19:32;;;;;;;2.25;1.73;;;;;;;;;;5049751;28;20482;-66
2023/04/18 10:21:59;;;;;;;2.08;1.90;;;;;;;;;;5049902;28;20031;-66
2023/04/18 10:24:44;;;;;;;1.52;1.42;;;;;;;;;;5049888;28;20043;-66
2023/04/18 10:27:10;;;;;;;1.92;1.75;;;;;;;;;;5050434;28;20033;-66
2023/04/18 10:29:47;;;;;;;2.90;1.90;;;;;;;;;;5050274;28;20040;-66
2023/04/18 10:32:13;;;;;;;2.53;1.90;;;;;;;;;;5050022;28;20037;-66
2023/04/18 10:34:40;;;;;;;2.42;1.90;;;;;;;;;;5047703;28;20035;-66
2023/04/18 10:37:07;;;;;;;1.90;1.70;;;;;;;;;;5049634;28;20118;-66
2023/04/18 10:39:53;;;;;;;3.47;1.85;;;;;;;;;;5050419;28;20737;-65
2023/04/18 10:42:39;;;;;;;2.25;1.73;;;;;;;;;;5043153;28;20421;-66
2023/04/18 10:45:18;;;;;;;2.42;1.80;;;;;;;;;;5049887;28;20036;-68
2023/04/18 10:47:44;;;;;;;3.58;2.25;;;;;;;;;;5050142;28;20031;-66
2023/04/18 10:50:10;;;;;;;2.50;2.28;;;;;;;;;;5050503;28;20021;-65
2023/04/18 10:52:37;;;;;;;1.65;1.55;;;;;;;;;;5050251;28;20379;-66
2023/04/18 10:55:08;;;;;;;2.25;1.90;;;;;;;;;;5050197;28;20036;-66
2023/04/18 10:57:38;;;;;;;6.65;1.80;;;;;;;;;;5050530;28;20032;-65
2023/04/18 11:00:08;;;;;;;1.67;1.58;;;;;;;;;;5050835;28;20027;-66
2023/04/18 11:02:34;;;;;;;1.95;1.63;;;;;;;;;;5050027;28;20025;-66
2023/04/18 11:05:05;;;;;;;7.05;2.00;;;;;;;;;;5050283;28;20037;-66
2023/04/18 11:07:32;;;;;;;1.83;1.50;;;;;;;;;;5050672;28;20501;-68
2023/04/18 11:09:59;;;;;;;2.78;1.70;;;;;;;;;;5050149;28;20507;-68
2023/04/18 11:12:29;;;;;;;4.53;1.80;;;;;;;;;;5052285;28;20521;-67
2023/04/18 11:14:55;;;;;;;2.10;1.90;;;;;;;;;;5054182;28;20021;-68
2023/04/18 11:17:23;;;;;;;5.07;1.95;;;;;;;;;;5053803;28;20256;-68
2023/04/18 11:19:50;;;;;;;3.08;1.92;;;;;;;;;;5053998;28;20028;-68
2023/04/18 11:22:17;;;;;;;1.90;1.70;;;;;;;;;;5053657;28;20366;-67
2023/04/18 11:24:44;;;;;;;3.50;1.50;;;;;;;;;;5053588;28;20033;-68
2023/04/18 11:27:11;;;;;;;3.40;1.45;;;;;;;;;;5053497;28;20029;-68
2023/04/18 11:29:38;;;;;;;2.72;1.65;;;;;;;;;;5053506;28;20036;-67
2023/04/18 11:32:08;;;;;;;4.82;1.80;;;;;;;;;;5053430;28;20500;-67
2023/04/18 11:34:35;;;;;;;2.35;1.40;;;;;;;;;;5053464;28;20035;-68
2023/04/18 11:37:05;;;;;;;1.50;1.40;;;;;;;;;;5053129;28;20025;-67
2023/04/18 11:39:35;;;;;;;2.05;1.85;;;;;;;;;;5052746;28;20062;-68
2023/04/18 11:42:01;;;;;;;1.50;1.40;;;;;;;;;;5053248;28;20035;-67
2023/04/18 11:44:27;;;;;;;3.60;1.50;;;;;;;;;;5053321;28;20032;-68
2023/04/18 11:46:54;;;;;;;5.13;1.70;;;;;;;;;;5053111;28;20032;-67
2023/04/18 11:49:31;;;;;;;1.65;1.55;;;;;;;;;;5053132;28;20393;-68
2023/04/18 11:51:58;;;;;;;1.88;1.65;;;;;;;;;;5052839;28;20029;-68
2023/04/18 11:54:44;;;;;;;2.05;1.85;;;;;;;;;;5052720;28;20166;-68
2023/04/18 11:57:19;;;;;;;2.00;1.80;;;;;;;;;;5045408;28;20033;-68
2023/04/18 11:59:50;;;;;;;1.70;1.60;;;;;;;;;;5053122;28;20009;-68
2023/04/18 12:02:16;;;;;;;1.75;1.48;;;;;;;;;;5053005;28;20028;-67
2023/04/18 12:04:56;;;;;;;2.20;1.40;;;;;;;;;;5052913;28;20037;-67
2023/04/18 12:07:30;;;;;;;1.42;1.33;;;;;;;;;;5052396;28;20393;-68
2023/04/18 12:09:57;;;;;;;3.50;1.60;;;;;;;;;;5053806;28;20035;-68
2023/04/18 12:12:23;;;;;;;3.28;1.48;;;;;;;;;;5053308;28;20035;-68
2023/04/18 12:14:57;;;;;;;2.30;1.52;;;;;;;;;;5034227;28;20512;-68
2023/04/18 12:17:26;;;;;;;2.10;1.67;;;;;;;;;;5040003;28;20025;-68
2023/04/18 12:19:52;;;;;;;2.55;1.50;;;;;;;;;;5053752;28;20035;-67
2023/04/18 12:22:19;;;;;;;1.77;1.40;;;;;;;;;;5052413;28;20021;-66
2023/04/18 12:24:45;;;;;;;3.35;1.67;;;;;;;;;;5052447;28;20555;-66
2023/04/18 12:27:11;;;;;;;4.20;1.48;;;;;;;;;;5052519;28;20035;-67
2023/04/18 12:29:38;;;;;;;2.05;1.55;;;;;;;;;;5052415;28;20032;-67
2023/04/18 12:32:05;;;;;;;1.60;1.45;;;;;;;;;;5052416;28;20055;-67
2023/04/18 12:34:31;;;;;;;1.80;1.58;;;;;;;;;;5053074;28;20029;-67
2023/04/18 12:36:57;;;;;;;2.55;1.40;;;;;;;;;;5052579;28;20025;-66
2023/04/18 12:39:24;;;;;;;1.52;1.42;;;;;;;;;;5052303;28;20027;-66
2023/04/18 12:41:51;;;;;;;2.75;1.50;;;;;;;;;;5052825;28;20033;-67
2023/04/18 12:44:17;;;;;;;1.60;1.30;;;;;;;;;;5052268;28;20044;-67
2023/04/18 12:46:43;;;;;;;2.00;1.80;;;;;;;;;;5052223;28;20017;-67
2023/04/18 12:49:10;;;;;;;2.15;1.60;;;;;;;;;;5052561;28;20031;-67
2023/04/18 12:51:36;;;;;;;1.40;1.23;;;;;;;;;;5052464;28;20025;-67
2023/04/18 12:54:02;;;;;;;1.40;1.30;;;;;;;;;;5052309;28;20041;-67
2023/04/18 12:56:29;;;;;;;1.60;1.50;;;;;;;;;;5051988;28;20041;-67
2023/04/18 12:58:55;;;;;;;1.63;1.17;;;;;;;;;;5052116;28;20025;-66
2023/04/18 13:01:21;;;;;;;1.10;1.00;;;;;;;;;;5051642;28;20029;-67
2023/04/18 13:03:48;;;;;;;1.42;1.10;;;;;;;;;;5053162;28;20031;-67
2023/04/18 13:06:14;;;;;;;2.13;1.38;;;;;;;;;;5051732;28;20400;-67
2023/04/18 13:08:41;;;;;;;2.75;1.40;;;;;;;;;;5051715;28;20025;-66
2023/04/18 13:11:07;;;;;;;2.10;1.33;;;;;;;;;;5051882;28;20027;-67
2023/04/18 13:13:34;;;;;;;3.05;1.33;;;;;;;;;;5051520;28;20025;-67
2023/04/18 13:16:00;;;;;;;4.30;1.30;;;;;;;;;;5050945;28;20032;-66
2023/04/18 13:18:26;;;;;;;3.35;1.23;;;;;;;;;;5052609;28;20494;-67
2023/04/18 13:20:53;;;;;;;1.65;1.00;;;;;;;;;;5051719;28;20025;-67
2023/04/18 13:23:19;;;;;;;1.55;1.10;;;;;;;;;;5051514;28;20035;-67
2023/04/18 13:25:45;;;;;;;1.52;1.05;;;;;;;;;;5051772;28;20021;-66
2023/04/18 13:28:12;;;;;;;1.05;1.00;;;;;;;;;;5050816;28;20021;-67
2023/04/18 13:30:38;;;;;;;2.63;0.98;;;;;;;;;;5051270;28;20055;-67
2023/04/18 13:33:05;;;;;;;4.10;1.25;;;;;;;;;;5051530;28;20021;-67
2023/04/18 13:35:31;;;;;;;1.10;1.00;;;;;;;;;;5050758;28;20028;-67
2023/04/18 13:37:58;;;;;;;5.68;1.15;;;;;;;;;;5050391;28;20021;-67
2023/04/18 13:40:24;;;;;;;1.40;1.30;;;;;;;;;;5051297;28;20020;-67
2023/04/18 13:42:50;;;;;;;2.70;1.20;;;;;;;;;;5051210;28;20035;-66
2023/04/18 13:45:17;;;;;;;3.35;1.20;;;;;;;;;;5051266;28;20029;-66
2023/04/18 13:47:43;;;;;;;1.92;1.60;;;;;;;;;;5050952;28;20025;-67
2023/04/18 13:50:09;;;;;;;2.13;1.20;;;;;;;;;;5051023;28;20485;-68
2023/04/18 13:52:36;;;;;;;3.38;1.05;;;;;;;;;;5051433;28;20017;-67
2023/04/18 13:55:02;;;;;;;1.58;1.25;;;;;;;;;;5050633;28;20036;-67
2023/04/18 13:57:30;;;;;;;3.83;1.05;;;;;;;;;;5050681;28;20420;-67
2023/04/18 13:59:57;;;;;;;1.15;1.05;;;;;;;;;;5050784;28;20027;-66
2023/04/18 14:02:23;;;;;;;1.77;1.10;;;;;;;;;;5050781;28;20512;-67
2023/04/18 14:04:50;;;;;;;1.40;1.00;;;;;;;;;;5051971;28;20486;-66
2023/04/18 14:07:16;;;;;;;0.90;0.90;;;;;;;;;;5049778;28;20030;-67
2023/04/18 14:09:43;;;;;;;2.83;0.77;;;;;;;;;;5050909;28;20029;-67
2023/04/18 14:12:09;;;;;;;1.15;0.90;;;;;;;;;;5050621;28;20035;-67
2023/04/18 14:14:36;;;;;;;0.80;0.80;;;;;;;;;;5050558;28;20029;-67
2023/04/18 14:17:02;;;;;;;2.38;1.00;;;;;;;;;;5050869;28;20023;-67
2023/04/18 14:19:28;;;;;;;1.00;0.73;;;;;;;;;;5050032;28;20440;-67
2023/04/18 14:21:55;;;;;;;2.15;0.73;;;;;;;;;;5050581;28;20021;-67
2023/04/18 14:24:21;;;;;;;1.88;1.20;;;;;;;;;;5050549;28;20524;-67
2023/04/18 14:26:47;;;;;;;1.35;0.90;;;;;;;;;;5050140;28;20029;-66
2023/04/18 14:29:14;;;;;;;0.98;0.90;;;;;;;;;;5050281;28;20029;-66
2023/04/18 14:31:40;;;;;;;2.17;1.00;;;;;;;;;;5049440;28;20060;-67
2023/04/18 14:34:08;;;;;;;4.55;0.95;;;;;;;;;;5050464;28;20029;-67
2023/04/18 14:36:34;;;;;;;3.05;1.15;;;;;;;;;;5049129;28;20055;-67
2023/04/18 14:39:01;;;;;;;0.95;0.80;;;;;;;;;;5049073;28;20021;-67